sensor_id;sensor_type;location;lat;lon;timestamp;temperature;humidity
35541;DHT22;21650;48.840;9.162;2023-07-24T00:02:24;19.10;99.90
35541;DHT22;21650;48.840;9.162;2023-07-24T00:04:50;18.70;99.90
35541;DHT22;21650;48.840;9.162;2023-07-24T00:07:15;18.50;99.90
35541;DHT22;21650;48.840;9.162;2023-07-24T00:09:41;18.60;99.90
35541;DHT22;21650;48.840;9.162;2023-07-24T00:12:07;18.70;99.90
35541;DHT22;21650;48.840;9.162;2023-07-24T00:14:32;18.60;99.90
35541;DHT22;21650;48.840;9.162;2023-07-24T00:16:58;18.80;99.90
35541;DHT22;21650;48.840;9.162;2023-07-24T00:19:24;18.90;99.90
35541;DHT22;21650;48.840;9.162;2023-07-24T00:21:49;19.10;99.90
35541;DHT22;21650;48.840;9.162;2023-07-24T00:24:15;18.90;99.90
35541;DHT22;21650;48.840;9.162;2023-07-24T00:26:40;18.80;99.90
35541;DHT22;21650;48.840;9.162;2023-07-24T00:29:06;19.00;99.90
35541;DHT22;21650;48.840;9.162;2023-07-24T00:31:32;19.00;99.90
35541;DHT22;21650;48.840;9.162;2023-07-24T00:33:57;18.90;99.90
35541;DHT22;21650;48.840;9.162;2023-07-24T00:36:26;19.00;99.90
35541;DHT22;21650;48.840;9.162;2023-07-24T00:38:51;19.10;99.90
35541;DHT22;21650;48.840;9.162;2023-07-24T00:41:17;18.90;99.90
35541;DHT22;21650;48.840;9.162;2023-07-24T00:43:42;19.00;99.90
35541;DHT22;21650;48.840;9.162;2023-07-24T00:46:10;19.10;99.90
35541;DHT22;21650;48.840;9.162;2023-07-24T00:48:37;19.10;99.90
35541;DHT22;21650;48.840;9.162;2023-07-24T00:51:03;19.10;99.90
35541;DHT22;21650;48.840;9.162;2023-07-24T00:53:30;19.10;99.90
35541;DHT22;21650;48.840;9.162;2023-07-24T00:55:56;19.10;99.90
35541;DHT22;21650;48.840;9.162;2023-07-24T00:58:22;19.10;99.90
35541;DHT22;21650;48.840;9.162;2023-07-24T01:00:48;19.00;99.90
35541;DHT22;21650;48.840;9.162;2023-07-24T01:03:14;19.10;99.90
35541;DHT22;21650;48.840;9.162;2023-07-24T01:05:39;19.00;99.90
35541;DHT22;21650;48.840;9.162;2023-07-24T01:08:06;18.90;99.90
35541;DHT22;21650;48.840;9.162;2023-07-24T01:10:32;18.90;99.90
35541;DHT22;21650;48.840;9.162;2023-07-24T01:13:18;18.90;99.90
35541;DHT22;21650;48.840;9.162;2023-07-24T01:16:12;18.90;99.90
35541;DHT22;21650;48.840;9.162;2023-07-24T01:18:39;18.80;99.90
35541;DHT22;21650;48.840;9.162;2023-07-24T01:21:07;18.80;99.90
35541;DHT22;21650;48.840;9.162;2023-07-24T01:23:55;18.70;99.90
35541;DHT22;21650;48.840;9.162;2023-07-24T01:26:25;18.70;99.90
35541;DHT22;21650;48.840;9.162;2023-07-24T01:28:51;18.70;99.90
35541;DHT22;21650;48.840;9.162;2023-07-24T01:31:16;18.70;99.90
35541;DHT22;21650;48.840;9.162;2023-07-24T01:33:43;18.70;99.90
35541;DHT22;21650;48.840;9.162;2023-07-24T01:36:10;18.70;99.90
35541;DHT22;21650;48.840;9.162;2023-07-24T01:38:36;18.60;99.90
35541;DHT22;21650;48.840;9.162;2023-07-24T01:41:03;18.60;99.90
35541;DHT22;21650;48.840;9.162;2023-07-24T01:43:30;18.60;99.90
35541;DHT22;21650;48.840;9.162;2023-07-24T01:45:56;18.60;99.90
35541;DHT22;21650;48.840;9.162;2023-07-24T01:48:22;18.60;99.90
35541;DHT22;21650;48.840;9.162;2023-07-24T01:50:47;18.50;99.90
35541;DHT22;21650;48.840;9.162;2023-07-24T01:53:13;18.40;99.90
35541;DHT22;21650;48.840;9.162;2023-07-24T01:55:39;18.40;99.90
35541;DHT22;21650;48.840;9.162;2023-07-24T01:58:04;18.50;99.90
35541;DHT22;21650;48.840;9.162;2023-07-24T02:00:30;18.50;99.90
35541;DHT22;21650;48.840;9.162;2023-07-24T02:02:55;18.50;99.90
35541;DHT22;21650;48.840;9.162;2023-07-24T02:05:22;18.40;99.90
35541;DHT22;21650;48.840;9.162;2023-07-24T02:07:47;18.40;99.90
35541;DHT22;21650;48.840;9.162;2023-07-24T02:10:13;18.40;99.90
35541;DHT22;21650;48.840;9.162;2023-07-24T02:12:38;18.40;99.90
35541;DHT22;21650;48.840;9.162;2023-07-24T02:15:05;18.40;99.90
35541;DHT22;21650;48.840;9.162;2023-07-24T02:17:31;18.50;99.90
35541;DHT22;21650;48.840;9.162;2023-07-24T02:19:57;18.50;99.90
35541;DHT22;21650;48.840;9.162;2023-07-24T02:22:23;18.50;99.90
35541;DHT22;21650;48.840;9.162;2023-07-24T02:24:48;18.50;99.90
35541;DHT22;21650;48.840;9.162;2023-07-24T02:27:28;18.50;99.90
35541;DHT22;21650;48.840;9.162;2023-07-24T02:29:54;18.50;99.90
35541;DHT22;21650;48.840;9.162;2023-07-24T02:32:22;18.50;99.90
35541;DHT22;21650;48.840;9.162;2023-07-24T02:34:51;18.50;99.90
35541;DHT22;21650;48.840;9.162;2023-07-24T02:37:18;18.50;99.90
35541;DHT22;21650;48.840;9.162;2023-07-24T02:42:14;18.50;99.90
35541;DHT22;21650;48.840;9.162;2023-07-24T02:44:39;18.50;99.90
35541;DHT22;21650;48.840;9.162;2023-07-24T02:47:05;18.50;99.90
35541;DHT22;21650;48.840;9.162;2023-07-24T02:49:32;18.30;99.90
35541;DHT22;21650;48.840;9.162;2023-07-24T02:51:58;18.40;99.90
35541;DHT22;21650;48.840;9.162;2023-07-24T02:54:25;18.50;99.90
35541;DHT22;21650;48.840;9.162;2023-07-24T02:56:51;18.40;99.90
35541;DHT22;21650;48.840;9.162;2023-07-24T02:59:17;18.40;99.90
35541;DHT22;21650;48.840;9.162;2023-07-24T03:01:43;18.50;99.90
35541;DHT22;21650;48.840;9.162;2023-07-24T03:04:08;18.50;99.90
35541;DHT22;21650;48.840;9.162;2023-07-24T03:06:34;18.50;99.90
35541;DHT22;21650;48.840;9.162;2023-07-24T03:09:00;18.30;99.90
35541;DHT22;21650;48.840;9.162;2023-07-24T03:11:26;18.30;99.90
35541;DHT22;21650;48.840;9.162;2023-07-24T03:13:52;18.30;99.90
35541;DHT22;21650;48.840;9.162;2023-07-24T03:16:17;18.30;99.90
35541;DHT22;21650;48.840;9.162;2023-07-24T03:18:44;18.30;99.90
35541;DHT22;21650;48.840;9.162;2023-07-24T03:21:10;18.20;99.90
35541;DHT22;21650;48.840;9.162;2023-07-24T03:23:36;18.00;99.90
35541;DHT22;21650;48.840;9.162;2023-07-24T03:26:01;17.90;99.90
35541;DHT22;21650;48.840;9.162;2023-07-24T03:28:27;18.00;99.90
35541;DHT22;21650;48.840;9.162;2023-07-24T03:30:53;18.00;99.90
35541;DHT22;21650;48.840;9.162;2023-07-24T03:33:19;18.10;99.90
35541;DHT22;21650;48.840;9.162;2023-07-24T03:35:45;18.10;99.90
35541;DHT22;21650;48.840;9.162;2023-07-24T03:38:10;18.00;99.90
35541;DHT22;21650;48.840;9.162;2023-07-24T03:40:36;18.00;99.90
35541;DHT22;21650;48.840;9.162;2023-07-24T03:43:02;18.10;99.90
35541;DHT22;21650;48.840;9.162;2023-07-24T03:45:27;18.10;99.90
35541;DHT22;21650;48.840;9.162;2023-07-24T03:47:53;18.10;99.90
35541;DHT22;21650;48.840;9.162;2023-07-24T03:50:18;18.20;99.90
35541;DHT22;21650;48.840;9.162;2023-07-24T03:52:44;18.10;99.90
35541;DHT22;21650;48.840;9.162;2023-07-24T03:55:10;18.10;99.90
35541;DHT22;21650;48.840;9.162;2023-07-24T03:57:36;18.10;99.90
35541;DHT22;21650;48.840;9.162;2023-07-24T04:00:02;18.20;99.90
35541;DHT22;21650;48.840;9.162;2023-07-24T04:02:28;18.20;99.90
35541;DHT22;21650;48.840;9.162;2023-07-24T04:04:53;18.20;99.90
35541;DHT22;21650;48.840;9.162;2023-07-24T04:07:19;18.20;99.90
35541;DHT22;21650;48.840;9.162;2023-07-24T04:09:45;18.20;99.90
35541;DHT22;21650;48.840;9.162;2023-07-24T04:12:11;18.30;99.90
35541;DHT22;21650;48.840;9.162;2023-07-24T04:14:36;18.30;99.90
35541;DHT22;21650;48.840;9.162;2023-07-24T04:17:02;18.30;99.90
35541;DHT22;21650;48.840;9.162;2023-07-24T04:19:27;18.30;99.90
35541;DHT22;21650;48.840;9.162;2023-07-24T04:21:53;18.40;99.90
35541;DHT22;21650;48.840;9.162;2023-07-24T04:24:18;18.40;99.90
35541;DHT22;21650;48.840;9.162;2023-07-24T04:26:44;18.40;99.90
35541;DHT22;21650;48.840;9.162;2023-07-24T04:29:10;18.40;99.90
35541;DHT22;21650;48.840;9.162;2023-07-24T04:31:35;18.50;99.90
35541;DHT22;21650;48.840;9.162;2023-07-24T04:34:01;18.60;99.90
35541;DHT22;21650;48.840;9.162;2023-07-24T04:36:26;18.50;99.90
35541;DHT22;21650;48.840;9.162;2023-07-24T04:38:52;18.60;99.90
35541;DHT22;21650;48.840;9.162;2023-07-24T04:41:18;18.50;99.90
35541;DHT22;21650;48.840;9.162;2023-07-24T04:43:43;18.60;99.90
35541;DHT22;21650;48.840;9.162;2023-07-24T04:46:09;18.60;99.90
35541;DHT22;21650;48.840;9.162;2023-07-24T04:48:34;18.70;99.90
35541;DHT22;21650;48.840;9.162;2023-07-24T04:51:00;18.70;99.90
35541;DHT22;21650;48.840;9.162;2023-07-24T04:53:26;18.80;99.90
35541;DHT22;21650;48.840;9.162;2023-07-24T04:55:51;18.80;99.90
35541;DHT22;21650;48.840;9.162;2023-07-24T04:58:17;18.80;99.90
35541;DHT22;21650;48.840;9.162;2023-07-24T05:00:42;18.80;99.90
35541;DHT22;21650;48.840;9.162;2023-07-24T05:03:08;18.80;99.90
35541;DHT22;21650;48.840;9.162;2023-07-24T05:05:37;18.90;99.90
35541;DHT22;21650;48.840;9.162;2023-07-24T05:08:02;18.80;99.90
35541;DHT22;21650;48.840;9.162;2023-07-24T05:10:28;18.90;99.90
35541;DHT22;21650;48.840;9.162;2023-07-24T05:12:54;18.90;99.90
35541;DHT22;21650;48.840;9.162;2023-07-24T05:15:22;18.80;99.90
35541;DHT22;21650;48.840;9.162;2023-07-24T05:17:47;18.70;99.90
35541;DHT22;21650;48.840;9.162;2023-07-24T05:20:13;18.70;99.90
35541;DHT22;21650;48.840;9.162;2023-07-24T05:22:38;18.90;99.90
35541;DHT22;21650;48.840;9.162;2023-07-24T05:25:04;18.90;99.90
35541;DHT22;21650;48.840;9.162;2023-07-24T05:27:30;18.80;99.90
35541;DHT22;21650;48.840;9.162;2023-07-24T05:29:55;18.90;99.90
35541;DHT22;21650;48.840;9.162;2023-07-24T05:32:21;18.90;99.90
35541;DHT22;21650;48.840;9.162;2023-07-24T05:34:47;19.00;99.90
35541;DHT22;21650;48.840;9.162;2023-07-24T05:37:12;19.10;99.90
35541;DHT22;21650;48.840;9.162;2023-07-24T05:39:38;19.00;99.90
35541;DHT22;21650;48.840;9.162;2023-07-24T05:42:04;19.10;99.90
35541;DHT22;21650;48.840;9.162;2023-07-24T05:44:29;19.00;99.90
35541;DHT22;21650;48.840;9.162;2023-07-24T05:46:55;19.10;99.90
35541;DHT22;21650;48.840;9.162;2023-07-24T05:49:20;19.10;99.90
35541;DHT22;21650;48.840;9.162;2023-07-24T05:51:46;19.10;99.90
35541;DHT22;21650;48.840;9.162;2023-07-24T05:54:11;19.10;99.90
35541;DHT22;21650;48.840;9.162;2023-07-24T05:56:37;19.10;99.90
35541;DHT22;21650;48.840;9.162;2023-07-24T05:59:02;19.10;99.90
35541;DHT22;21650;48.840;9.162;2023-07-24T06:01:28;19.20;99.90
35541;DHT22;21650;48.840;9.162;2023-07-24T06:03:54;19.10;99.90
35541;DHT22;21650;48.840;9.162;2023-07-24T06:06:19;19.10;99.90
35541;DHT22;21650;48.840;9.162;2023-07-24T06:08:45;19.20;99.90
35541;DHT22;21650;48.840;9.162;2023-07-24T06:11:12;19.20;99.90
35541;DHT22;21650;48.840;9.162;2023-07-24T06:13:38;19.20;99.90
35541;DHT22;21650;48.840;9.162;2023-07-24T06:16:04;19.20;99.90
35541;DHT22;21650;48.840;9.162;2023-07-24T06:18:29;19.20;99.90
35541;DHT22;21650;48.840;9.162;2023-07-24T06:20:55;19.30;99.90
35541;DHT22;21650;48.840;9.162;2023-07-24T06:23:21;19.40;99.90
35541;DHT22;21650;48.840;9.162;2023-07-24T06:25:46;19.50;99.90
35541;DHT22;21650;48.840;9.162;2023-07-24T06:28:12;19.40;99.90
35541;DHT22;21650;48.840;9.162;2023-07-24T06:30:40;19.40;99.90
35541;DHT22;21650;48.840;9.162;2023-07-24T06:33:06;19.50;99.90
35541;DHT22;21650;48.840;9.162;2023-07-24T06:35:31;19.50;99.90
35541;DHT22;21650;48.840;9.162;2023-07-24T06:37:57;19.60;99.90
35541;DHT22;21650;48.840;9.162;2023-07-24T06:40:22;19.60;99.90
35541;DHT22;21650;48.840;9.162;2023-07-24T06:42:48;19.70;99.90
35541;DHT22;21650;48.840;9.162;2023-07-24T06:45:14;19.70;99.90
35541;DHT22;21650;48.840;9.162;2023-07-24T06:47:39;19.70;99.90
35541;DHT22;21650;48.840;9.162;2023-07-24T06:50:06;19.80;99.90
35541;DHT22;21650;48.840;9.162;2023-07-24T06:52:32;19.80;99.90
35541;DHT22;21650;48.840;9.162;2023-07-24T06:54:58;19.90;99.90
35541;DHT22;21650;48.840;9.162;2023-07-24T06:57:24;19.90;99.90
35541;DHT22;21650;48.840;9.162;2023-07-24T06:59:50;19.90;99.90
35541;DHT22;21650;48.840;9.162;2023-07-24T07:02:15;19.90;99.90
35541;DHT22;21650;48.840;9.162;2023-07-24T07:04:41;19.90;99.90
35541;DHT22;21650;48.840;9.162;2023-07-24T07:07:06;19.90;99.90
35541;DHT22;21650;48.840;9.162;2023-07-24T07:09:32;19.90;99.90
35541;DHT22;21650;48.840;9.162;2023-07-24T07:11:58;20.00;99.90
35541;DHT22;21650;48.840;9.162;2023-07-24T07:14:24;20.00;99.90
35541;DHT22;21650;48.840;9.162;2023-07-24T07:16:49;20.00;99.90
35541;DHT22;21650;48.840;9.162;2023-07-24T07:19:15;20.10;99.90
35541;DHT22;21650;48.840;9.162;2023-07-24T07:21:40;20.10;99.90
35541;DHT22;21650;48.840;9.162;2023-07-24T07:24:06;20.00;99.90
35541;DHT22;21650;48.840;9.162;2023-07-24T07:26:31;20.00;99.90
35541;DHT22;21650;48.840;9.162;2023-07-24T07:28:57;20.00;99.90
35541;DHT22;21650;48.840;9.162;2023-07-24T07:31:23;20.00;99.90
35541;DHT22;21650;48.840;9.162;2023-07-24T07:33:48;20.10;99.90
35541;DHT22;21650;48.840;9.162;2023-07-24T07:36:14;20.10;99.90
35541;DHT22;21650;48.840;9.162;2023-07-24T07:38:40;20.10;99.90
35541;DHT22;21650;48.840;9.162;2023-07-24T07:41:05;20.10;99.90
35541;DHT22;21650;48.840;9.162;2023-07-24T07:43:31;20.10;99.90
35541;DHT22;21650;48.840;9.162;2023-07-24T07:45:57;20.10;99.90
35541;DHT22;21650;48.840;9.162;2023-07-24T07:48:24;20.20;99.90
35541;DHT22;21650;48.840;9.162;2023-07-24T07:50:51;20.20;99.90
35541;DHT22;21650;48.840;9.162;2023-07-24T07:53:17;20.30;99.90
35541;DHT22;21650;48.840;9.162;2023-07-24T07:55:42;20.30;99.90
35541;DHT22;21650;48.840;9.162;2023-07-24T07:58:08;20.30;99.90
35541;DHT22;21650;48.840;9.162;2023-07-24T08:00:34;20.30;99.90
35541;DHT22;21650;48.840;9.162;2023-07-24T08:03:00;20.20;99.90
35541;DHT22;21650;48.840;9.162;2023-07-24T08:05:25;20.20;99.90
35541;DHT22;21650;48.840;9.162;2023-07-24T08:07:51;20.30;99.90
35541;DHT22;21650;48.840;9.162;2023-07-24T08:10:17;20.30;99.90
35541;DHT22;21650;48.840;9.162;2023-07-24T08:12:43;20.30;99.90
35541;DHT22;21650;48.840;9.162;2023-07-24T08:15:09;20.20;99.90
35541;DHT22;21650;48.840;9.162;2023-07-24T08:17:35;20.20;99.90
35541;DHT22;21650;48.840;9.162;2023-07-24T08:20:01;20.20;99.90
35541;DHT22;21650;48.840;9.162;2023-07-24T08:22:26;20.10;99.90
35541;DHT22;21650;48.840;9.162;2023-07-24T08:24:52;20.00;99.90
35541;DHT22;21650;48.840;9.162;2023-07-24T08:27:17;20.00;99.90
35541;DHT22;21650;48.840;9.162;2023-07-24T08:29:43;19.90;99.90
35541;DHT22;21650;48.840;9.162;2023-07-24T08:32:09;19.80;99.90
35541;DHT22;21650;48.840;9.162;2023-07-24T08:34:34;19.70;99.90
35541;DHT22;21650;48.840;9.162;2023-07-24T08:37:00;19.70;99.90
35541;DHT22;21650;48.840;9.162;2023-07-24T08:39:26;19.70;99.90
35541;DHT22;21650;48.840;9.162;2023-07-24T08:41:51;19.70;99.90
35541;DHT22;21650;48.840;9.162;2023-07-24T08:44:17;19.60;99.90
35541;DHT22;21650;48.840;9.162;2023-07-24T08:46:44;19.80;99.90
35541;DHT22;21650;48.840;9.162;2023-07-24T08:49:14;19.80;99.90
35541;DHT22;21650;48.840;9.162;2023-07-24T08:51:44;19.80;99.90
35541;DHT22;21650;48.840;9.162;2023-07-24T08:54:11;19.80;99.90
35541;DHT22;21650;48.840;9.162;2023-07-24T08:56:37;19.90;99.90
35541;DHT22;21650;48.840;9.162;2023-07-24T08:59:05;20.00;99.90
35541;DHT22;21650;48.840;9.162;2023-07-24T09:01:31;20.20;99.90
35541;DHT22;21650;48.840;9.162;2023-07-24T09:03:57;20.20;99.90
35541;DHT22;21650;48.840;9.162;2023-07-24T09:06:22;20.30;99.90
35541;DHT22;21650;48.840;9.162;2023-07-24T09:08:48;20.40;99.90
35541;DHT22;21650;48.840;9.162;2023-07-24T09:11:14;20.50;99.90
35541;DHT22;21650;48.840;9.162;2023-07-24T09:13:43;20.60;99.90
35541;DHT22;21650;48.840;9.162;2023-07-24T09:16:09;20.70;99.90
35541;DHT22;21650;48.840;9.162;2023-07-24T09:18:45;20.90;99.90
35541;DHT22;21650;48.840;9.162;2023-07-24T09:21:11;21.00;99.90
35541;DHT22;21650;48.840;9.162;2023-07-24T09:23:39;21.20;99.90
35541;DHT22;21650;48.840;9.162;2023-07-24T09:26:06;21.30;99.90
35541;DHT22;21650;48.840;9.162;2023-07-24T09:28:33;21.30;99.90
35541;DHT22;21650;48.840;9.162;2023-07-24T09:30:59;21.30;99.90
35541;DHT22;21650;48.840;9.162;2023-07-24T09:36:01;21.50;99.90
35541;DHT22;21650;48.840;9.162;2023-07-24T09:38:27;21.30;99.90
35541;DHT22;21650;48.840;9.162;2023-07-24T09:40:53;21.10;99.90
35541;DHT22;21650;48.840;9.162;2023-07-24T09:43:26;21.10;99.90
35541;DHT22;21650;48.840;9.162;2023-07-24T09:45:53;21.00;99.90
35541;DHT22;21650;48.840;9.162;2023-07-24T09:48:20;20.80;99.90
35541;DHT22;21650;48.840;9.162;2023-07-24T09:50:56;20.80;99.90
35541;DHT22;21650;48.840;9.162;2023-07-24T09:53:52;20.80;99.90
35541;DHT22;21650;48.840;9.162;2023-07-24T09:56:19;20.80;99.90
35541;DHT22;21650;48.840;9.162;2023-07-24T09:58:46;20.70;99.90
35541;DHT22;21650;48.840;9.162;2023-07-24T10:01:14;20.70;99.90
35541;DHT22;21650;48.840;9.162;2023-07-24T10:03:46;20.60;99.90
35541;DHT22;21650;48.840;9.162;2023-07-24T10:06:12;20.60;99.90
35541;DHT22;21650;48.840;9.162;2023-07-24T10:08:40;20.60;99.90
35541;DHT22;21650;48.840;9.162;2023-07-24T10:11:07;20.60;99.90
35541;DHT22;21650;48.840;9.162;2023-07-24T10:13:33;20.60;99.90
35541;DHT22;21650;48.840;9.162;2023-07-24T10:16:02;20.70;99.90
35541;DHT22;21650;48.840;9.162;2023-07-24T10:18:30;20.70;99.90
35541;DHT22;21650;48.840;9.162;2023-07-24T10:21:04;20.60;99.90
35541;DHT22;21650;48.840;9.162;2023-07-24T10:23:30;20.70;99.90
35541;DHT22;21650;48.840;9.162;2023-07-24T10:26:01;20.70;99.90
35541;DHT22;21650;48.840;9.162;2023-07-24T10:28:37;20.70;99.90
35541;DHT22;21650;48.840;9.162;2023-07-24T10:33:45;20.60;99.90
35541;DHT22;21650;48.840;9.162;2023-07-24T10:36:11;20.60;99.90
35541;DHT22;21650;48.840;9.162;2023-07-24T10:38:43;20.50;99.90
35541;DHT22;21650;48.840;9.162;2023-07-24T10:41:10;20.50;99.90
35541;DHT22;21650;48.840;9.162;2023-07-24T10:43:51;20.50;99.90
35541;DHT22;21650;48.840;9.162;2023-07-24T10:46:20;20.40;99.90
35541;DHT22;21650;48.840;9.162;2023-07-24T10:48:47;20.30;99.90
35541;DHT22;21650;48.840;9.162;2023-07-24T10:51:14;20.30;99.90
35541;DHT22;21650;48.840;9.162;2023-07-24T10:53:45;20.30;99.90
35541;DHT22;21650;48.840;9.162;2023-07-24T10:56:11;20.20;99.90
35541;DHT22;21650;48.840;9.162;2023-07-24T10:58:36;20.20;99.90
35541;DHT22;21650;48.840;9.162;2023-07-24T11:01:06;20.10;99.90
35541;DHT22;21650;48.840;9.162;2023-07-24T11:03:32;20.00;99.90
35541;DHT22;21650;48.840;9.162;2023-07-24T11:05:58;20.00;99.90
35541;DHT22;21650;48.840;9.162;2023-07-24T11:08:27;19.90;99.90
35541;DHT22;21650;48.840;9.162;2023-07-24T11:10:55;19.80;99.90
35541;DHT22;21650;48.840;9.162;2023-07-24T11:13:23;19.80;99.90
35541;DHT22;21650;48.840;9.162;2023-07-24T11:15:50;19.80;99.90
35541;DHT22;21650;48.840;9.162;2023-07-24T11:18:16;19.80;99.90
35541;DHT22;21650;48.840;9.162;2023-07-24T11:20:50;19.70;99.90
35541;DHT22;21650;48.840;9.162;2023-07-24T11:23:16;19.70;99.90
35541;DHT22;21650;48.840;9.162;2023-07-24T11:25:42;19.70;99.90
35541;DHT22;21650;48.840;9.162;2023-07-24T11:28:10;19.70;99.90
35541;DHT22;21650;48.840;9.162;2023-07-24T11:30:36;19.80;99.90
35541;DHT22;21650;48.840;9.162;2023-07-24T11:33:07;19.70;99.90
35541;DHT22;21650;48.840;9.162;2023-07-24T11:35:33;19.70;99.90
35541;DHT22;21650;48.840;9.162;2023-07-24T11:38:00;19.70;99.90
35541;DHT22;21650;48.840;9.162;2023-07-24T11:40:35;19.70;99.90
35541;DHT22;21650;48.840;9.162;2023-07-24T11:43:02;19.90;99.90
35541;DHT22;21650;48.840;9.162;2023-07-24T11:45:28;20.40;99.90
35541;DHT22;21650;48.840;9.162;2023-07-24T11:47:54;21.00;99.90
35541;DHT22;21650;48.840;9.162;2023-07-24T11:50:21;21.40;99.90
35541;DHT22;21650;48.840;9.162;2023-07-24T11:52:49;21.60;99.90
35541;DHT22;21650;48.840;9.162;2023-07-24T11:55:20;21.70;99.90
35541;DHT22;21650;48.840;9.162;2023-07-24T11:58:03;21.50;99.90
35541;DHT22;21650;48.840;9.162;2023-07-24T12:00:32;21.20;99.90
35541;DHT22;21650;48.840;9.162;2023-07-24T12:03:01;21.10;99.90
35541;DHT22;21650;48.840;9.162;2023-07-24T12:05:30;20.90;99.90
35541;DHT22;21650;48.840;9.162;2023-07-24T12:08:02;20.60;99.90
35541;DHT22;21650;48.840;9.162;2023-07-24T12:10:28;20.50;99.90
35541;DHT22;21650;48.840;9.162;2023-07-24T12:12:55;20.40;99.90
35541;DHT22;21650;48.840;9.162;2023-07-24T12:15:23;20.30;99.90
35541;DHT22;21650;48.840;9.162;2023-07-24T12:17:49;20.30;99.90
35541;DHT22;21650;48.840;9.162;2023-07-24T12:20:14;20.30;99.90
35541;DHT22;21650;48.840;9.162;2023-07-24T12:22:41;20.20;99.90
35541;DHT22;21650;48.840;9.162;2023-07-24T12:25:06;20.10;99.90
35541;DHT22;21650;48.840;9.162;2023-07-24T12:27:32;20.20;99.90
35541;DHT22;21650;48.840;9.162;2023-07-24T12:29:59;20.10;99.90
35541;DHT22;21650;48.840;9.162;2023-07-24T12:32:24;20.10;99.90
35541;DHT22;21650;48.840;9.162;2023-07-24T12:34:51;20.10;99.90
35541;DHT22;21650;48.840;9.162;2023-07-24T12:37:17;20.20;99.90
35541;DHT22;21650;48.840;9.162;2023-07-24T12:39:44;20.20;99.90
35541;DHT22;21650;48.840;9.162;2023-07-24T12:42:10;20.20;99.90
35541;DHT22;21650;48.840;9.162;2023-07-24T12:44:37;20.30;99.90
35541;DHT22;21650;48.840;9.162;2023-07-24T12:47:04;20.20;99.90
35541;DHT22;21650;48.840;9.162;2023-07-24T12:49:30;20.20;99.90
35541;DHT22;21650;48.840;9.162;2023-07-24T12:51:55;20.30;99.90
35541;DHT22;21650;48.840;9.162;2023-07-24T12:54:21;20.30;99.90
35541;DHT22;21650;48.840;9.162;2023-07-24T12:56:48;20.40;99.90
35541;DHT22;21650;48.840;9.162;2023-07-24T12:59:14;20.60;99.90
35541;DHT22;21650;48.840;9.162;2023-07-24T13:01:40;20.70;99.90
35541;DHT22;21650;48.840;9.162;2023-07-24T13:04:05;20.70;99.90
35541;DHT22;21650;48.840;9.162;2023-07-24T13:06:31;20.80;99.90
35541;DHT22;21650;48.840;9.162;2023-07-24T13:08:57;20.80;99.90
35541;DHT22;21650;48.840;9.162;2023-07-24T13:11:22;20.90;99.90
35541;DHT22;21650;48.840;9.162;2023-07-24T13:13:48;20.90;99.90
35541;DHT22;21650;48.840;9.162;2023-07-24T13:16:16;20.90;99.90
35541;DHT22;21650;48.840;9.162;2023-07-24T13:18:41;20.90;99.90
35541;DHT22;21650;48.840;9.162;2023-07-24T13:21:07;21.00;99.90
35541;DHT22;21650;48.840;9.162;2023-07-24T13:23:33;21.10;99.90
35541;DHT22;21650;48.840;9.162;2023-07-24T13:25:59;21.30;99.90
35541;DHT22;21650;48.840;9.162;2023-07-24T13:28:24;21.30;99.90
35541;DHT22;21650;48.840;9.162;2023-07-24T13:30:50;21.30;99.90
35541;DHT22;21650;48.840;9.162;2023-07-24T13:33:16;21.30;99.90
35541;DHT22;21650;48.840;9.162;2023-07-24T13:35:41;21.40;99.90
35541;DHT22;21650;48.840;9.162;2023-07-24T13:38:07;21.40;99.90
35541;DHT22;21650;48.840;9.162;2023-07-24T13:40:36;21.50;99.90
35541;DHT22;21650;48.840;9.162;2023-07-24T13:43:01;21.40;99.90
35541;DHT22;21650;48.840;9.162;2023-07-24T13:45:28;21.50;99.90
35541;DHT22;21650;48.840;9.162;2023-07-24T13:47:54;21.60;99.90
35541;DHT22;21650;48.840;9.162;2023-07-24T13:50:20;21.70;99.90
35541;DHT22;21650;48.840;9.162;2023-07-24T13:52:45;21.80;99.90
35541;DHT22;21650;48.840;9.162;2023-07-24T13:55:11;21.80;99.90
35541;DHT22;21650;48.840;9.162;2023-07-24T13:57:37;22.20;99.90
35541;DHT22;21650;48.840;9.162;2023-07-24T14:00:02;22.90;99.90
35541;DHT22;21650;48.840;9.162;2023-07-24T14:02:28;23.40;99.90
35541;DHT22;21650;48.840;9.162;2023-07-24T14:04:54;23.90;99.90
35541;DHT22;21650;48.840;9.162;2023-07-24T14:07:19;24.20;99.90
35541;DHT22;21650;48.840;9.162;2023-07-24T14:09:45;24.30;99.90
35541;DHT22;21650;48.840;9.162;2023-07-24T14:12:11;24.50;99.90
35541;DHT22;21650;48.840;9.162;2023-07-24T14:14:36;24.70;99.90
35541;DHT22;21650;48.840;9.162;2023-07-24T14:17:02;24.80;99.90
35541;DHT22;21650;48.840;9.162;2023-07-24T14:19:28;24.60;99.90
35541;DHT22;21650;48.840;9.162;2023-07-24T14:21:53;24.40;99.90
35541;DHT22;21650;48.840;9.162;2023-07-24T14:24:19;24.40;99.90
35541;DHT22;21650;48.840;9.162;2023-07-24T14:26:44;24.10;99.90
35541;DHT22;21650;48.840;9.162;2023-07-24T14:29:10;24.00;99.90
35541;DHT22;21650;48.840;9.162;2023-07-24T14:31:37;23.90;99.90
35541;DHT22;21650;48.840;9.162;2023-07-24T14:34:03;24.10;99.90
35541;DHT22;21650;48.840;9.162;2023-07-24T14:36:29;24.30;99.90
35541;DHT22;21650;48.840;9.162;2023-07-24T14:38:59;24.60;99.90
35541;DHT22;21650;48.840;9.162;2023-07-24T14:41:26;25.00;99.90
35541;DHT22;21650;48.840;9.162;2023-07-24T14:43:51;24.90;99.90
35541;DHT22;21650;48.840;9.162;2023-07-24T14:46:17;24.70;99.90
35541;DHT22;21650;48.840;9.162;2023-07-24T14:48:43;24.60;99.90
35541;DHT22;21650;48.840;9.162;2023-07-24T14:51:08;24.50;99.90
35541;DHT22;21650;48.840;9.162;2023-07-24T14:53:34;24.50;99.90
35541;DHT22;21650;48.840;9.162;2023-07-24T14:56:01;24.80;99.90
35541;DHT22;21650;48.840;9.162;2023-07-24T14:58:27;24.70;99.90
35541;DHT22;21650;48.840;9.162;2023-07-24T15:00:52;24.70;99.90
35541;DHT22;21650;48.840;9.162;2023-07-24T15:03:18;24.70;99.90
35541;DHT22;21650;48.840;9.162;2023-07-24T15:05:44;24.70;99.90
35541;DHT22;21650;48.840;9.162;2023-07-24T15:08:10;24.90;99.90
35541;DHT22;21650;48.840;9.162;2023-07-24T15:10:35;24.90;99.90
35541;DHT22;21650;48.840;9.162;2023-07-24T15:13:01;25.10;99.90
35541;DHT22;21650;48.840;9.162;2023-07-24T15:15:26;25.30;99.90
35541;DHT22;21650;48.840;9.162;2023-07-24T15:17:52;25.30;99.90
35541;DHT22;21650;48.840;9.162;2023-07-24T15:20:18;24.90;99.90
35541;DHT22;21650;48.840;9.162;2023-07-24T15:22:43;24.50;99.90
35541;DHT22;21650;48.840;9.162;2023-07-24T15:25:09;24.30;99.90
35541;DHT22;21650;48.840;9.162;2023-07-24T15:27:35;24.10;99.90
35541;DHT22;21650;48.840;9.162;2023-07-24T15:30:00;23.90;99.90
35541;DHT22;21650;48.840;9.162;2023-07-24T15:32:26;23.80;99.90
35541;DHT22;21650;48.840;9.162;2023-07-24T15:34:52;23.70;99.90